Terminal Aerodrome Forecast
Issued by NWS

Home | Current Version | Previous Version | Text Only | Print | Product List | Glossary On
Versions: 1 2 3 4 5 6 7 8 9 10 11 12 13 14 15 16 17
000
FTUS44 KBMX 251002 AAB
TAFTCL
TAF AMD
KTCL 251002Z 2510/2606 15003KT 4SM BR BKN009 OVC015
      TEMPO 2510/2512 15006KT P6SM SHRA BKN015 OVC020
     FM251200 22012KT P6SM VCTS BKN025CB
     FM252300 21007KT P6SM SCT150=

USA.gov is the U.S. government's official web portal to all federal, state and local government web resources and services.